createdAt,value
2023-01-28T00:16:27.263Z,36.70
2023-01-28T00:18:55.972Z,34.50
2023-01-28T00:21:23.805Z,37.60
2023-01-28T00:23:54.453Z,36.20
2023-01-28T00:26:23.224Z,36.20
2023-01-28T00:28:51.368Z,34.20
2023-01-28T00:31:24.712Z,35.40
2023-01-28T00:33:52.964Z,33.70
2023-01-28T00:36:23.682Z,32.40
2023-01-28T00:38:56.685Z,31.50
2023-01-28T00:41:25.741Z,32.70
2023-01-28T00:43:54.915Z,32.80
2023-01-28T00:46:23.937Z,31.30
2023-01-28T00:48:51.913Z,31.90
2023-01-28T00:51:20.766Z,30.40
2023-01-28T00:53:51.317Z,29.60
2023-01-28T00:56:19.704Z,31.10
2023-01-28T00:58:48.085Z,31.40
2023-01-28T01:01:20.982Z,31.40
2023-01-28T01:03:57.781Z,30.50
2023-01-28T01:06:25.856Z,30.30
2023-01-28T01:08:55.120Z,32.20
2023-01-28T01:11:22.998Z,33.40
2023-01-28T01:13:55.227Z,28.50
2023-01-28T01:16:30.014Z,29.00
2023-01-28T01:18:58.067Z,29.90
2023-01-28T01:21:27.486Z,29.90
2023-01-28T01:23:55.518Z,30.00
2023-01-28T01:26:23.567Z,28.50
2023-01-28T01:28:52.417Z,30.20
2023-01-28T01:31:21.212Z,26.80
2023-01-28T01:33:50.065Z,29.00
2023-01-28T01:36:20.024Z,25.10
2023-01-28T01:38:48.460Z,26.70
2023-01-28T01:41:24.519Z,26.60
2023-01-28T01:43:56.501Z,26.30
2023-01-28T01:46:35.711Z,27.10
2023-01-28T01:49:11.674Z,27.00
2023-01-28T01:51:39.810Z,24.50
2023-01-28T01:54:07.910Z,27.00
2023-01-28T01:56:39.361Z,23.10
2023-01-28T01:59:10.504Z,24.60
2023-01-28T02:01:38.361Z,24.50
2023-01-28T02:04:09.722Z,27.40
2023-01-28T02:06:37.839Z,25.00
2023-01-28T02:09:29.864Z,26.50
2023-01-28T02:12:10.277Z,27.20
2023-01-28T02:14:42.185Z,26.60
2023-01-28T02:17:10.267Z,25.50
2023-01-28T02:19:49.965Z,26.60
2023-01-28T02:22:36.486Z,28.10
2023-01-28T02:25:26.060Z,25.90
2023-01-28T02:28:15.839Z,26.00
2023-01-28T02:31:06.700Z,24.70
2023-01-28T02:33:50.057Z,21.70
2023-01-28T02:37:06.363Z,22.00
2023-01-28T02:39:41.458Z,22.30
2023-01-28T02:42:13.726Z,22.50
2023-01-28T02:44:41.808Z,23.00
2023-01-28T02:47:29.776Z,23.60
2023-01-28T02:49:59.654Z,25.10
2023-01-28T02:53:10.745Z,24.90
2023-01-28T02:55:47.203Z,24.60
2023-01-28T02:58:27.272Z,19.90
2023-01-28T03:01:23.157Z,24.30
2023-01-28T03:04:01.882Z,26.10
2023-01-28T03:06:38.839Z,25.60
2023-01-28T03:09:23.760Z,26.80
2023-01-28T03:12:23.819Z,25.70
2023-01-28T03:15:15.386Z,24.90
2023-01-28T03:18:04.912Z,25.20
2023-01-28T03:21:06.146Z,25.20
2023-01-28T03:24:24.421Z,25.00
2023-01-28T03:27:43.879Z,23.70
2023-01-28T03:30:41.037Z,23.90
2023-01-28T03:33:31.483Z,23.10
2023-01-28T03:36:18.650Z,22.50
2023-01-28T03:38:48.481Z,23.90
2023-01-28T03:41:23.609Z,23.40
2023-01-28T03:43:51.892Z,23.50
2023-01-28T03:46:19.819Z,24.90
2023-01-28T03:48:48.472Z,25.00
2023-01-28T08:05:51.708Z,44.30
2023-01-28T08:08:19.740Z,41.40
2023-01-28T08:10:47.746Z,37.80
2023-01-28T08:13:17.041Z,42.80
2023-01-28T08:15:45.146Z,40.70
2023-01-28T08:18:13.978Z,37.50
2023-01-28T08:20:43.636Z,36.10
2023-01-28T08:23:13.135Z,34.60
2023-01-28T08:25:41.008Z,36.30
2023-01-28T08:28:09.587Z,33.10
2023-01-28T08:30:38.843Z,33.70
2023-01-28T08:33:08.145Z,33.80
2023-01-28T08:35:37.024Z,36.90
2023-01-28T08:38:06.442Z,36.40
2023-01-28T08:40:35.138Z,35.60
2023-01-28T08:43:03.621Z,39.60
2023-01-28T08:45:32.252Z,37.20
2023-01-28T08:48:07.158Z,30.30
2023-01-28T08:50:36.630Z,29.10
2023-01-28T08:53:06.612Z,27.20
2023-01-28T08:55:34.718Z,29.90
2023-01-28T08:58:10.352Z,26.40
2023-01-28T09:00:39.129Z,30.90
2023-01-28T09:03:07.188Z,29.60
2023-01-28T09:05:38.118Z,29.90
2023-01-28T09:08:08.147Z,31.30
2023-01-28T09:10:37.621Z,28.60
2023-01-28T09:13:06.868Z,30.90
2023-01-28T09:15:35.023Z,29.80
2023-01-28T09:18:02.911Z,31.20
2023-01-28T09:20:32.384Z,30.30
2023-01-28T09:23:00.800Z,32.90
2023-01-28T09:25:28.923Z,32.80
2023-01-28T09:27:57.633Z,33.30
2023-01-28T09:30:26.072Z,31.40
2023-01-28T09:32:54.551Z,31.40
2023-01-28T09:35:22.881Z,29.30
2023-01-28T09:37:52.149Z,31.50
2023-01-28T09:40:24.418Z,30.80
2023-01-28T09:42:59.773Z,29.10
2023-01-28T09:45:38.782Z,31.80
2023-01-28T09:48:07.193Z,33.00
2023-01-28T09:50:37.031Z,32.50
2023-01-28T09:53:32.258Z,31.70
2023-01-28T09:56:05.536Z,32.00
2023-01-28T09:58:33.701Z,33.50
2023-01-28T10:01:23.693Z,34.50
2023-01-28T10:04:03.107Z,31.20
2023-01-28T10:06:53.012Z,30.10
2023-01-28T10:09:41.310Z,33.40
2023-01-28T10:12:37.407Z,30.50
2023-01-28T10:15:20.949Z,35.40
2023-01-28T10:17:50.694Z,32.90
2023-01-28T10:20:25.441Z,33.00
2023-01-28T10:23:19.567Z,35.90
2023-01-28T10:25:49.658Z,31.40
2023-01-28T10:28:28.275Z,30.10
2023-01-28T10:30:56.348Z,31.60
2023-01-28T10:33:27.426Z,30.20
2023-01-28T10:35:58.843Z,32.20
2023-01-28T10:38:27.200Z,32.00
2023-01-28T10:40:58.444Z,33.90
2023-01-28T10:43:26.911Z,31.60
2023-01-28T10:46:14.806Z,34.00
2023-01-28T10:48:43.866Z,33.40
2023-01-28T10:51:11.842Z,36.10
2023-01-28T10:53:48.861Z,36.20
2023-01-28T10:56:28.588Z,36.10
2023-01-28T10:59:16.062Z,36.00
2023-01-28T11:01:57.277Z,33.80
2023-01-28T11:04:27.360Z,35.50
2023-01-28T11:07:06.724Z,32.20
2023-01-28T11:09:37.207Z,34.00
2023-01-28T11:12:21.049Z,31.10
2023-01-28T11:15:05.146Z,31.80
2023-01-28T11:20:12.049Z,29.50
2023-01-28T11:22:42.327Z,31.20
2023-01-28T11:25:27.915Z,33.10
2023-01-28T11:27:55.909Z,28.80
2023-01-28T11:30:32.616Z,32.80
2023-01-28T11:33:31.251Z,31.00
2023-01-28T11:36:12.146Z,33.30
2023-01-28T11:39:13.966Z,32.90
2023-01-28T11:41:41.870Z,32.60
2023-01-28T11:44:23.857Z,29.20
2023-01-28T11:47:13.781Z,27.60
2023-01-28T11:49:47.712Z,23.80
2023-01-28T11:55:40.749Z,27.20
2023-01-28T11:58:25.449Z,28.00
2023-01-28T16:32:03.208Z,80.30
2023-01-28T16:34:32.135Z,85.40
2023-01-28T16:38:41.083Z,76.00
2023-01-28T16:41:24.612Z,84.20
2023-01-28T16:43:53.077Z,102.10
2023-01-28T16:46:21.301Z,100.80
2023-01-28T16:48:55.152Z,108.20
2023-01-28T16:51:23.130Z,116.30
2023-01-28T16:53:51.212Z,108.50
2023-01-28T16:56:45.576Z,87.70
2023-01-28T17:00:49.871Z,86.00
2023-01-28T17:03:17.742Z,90.90
2023-01-28T17:05:46.408Z,89.60
2023-01-28T17:08:14.639Z,85.70
2023-01-28T17:10:43.700Z,91.00
2023-01-28T17:13:11.728Z,93.90
2023-01-28T17:15:39.692Z,101.50
2023-01-28T17:18:09.964Z,108.50
2023-01-28T17:20:40.439Z,93.10
2023-01-28T17:23:09.268Z,95.60
2023-01-28T17:25:41.183Z,89.80
2023-01-28T17:28:09.359Z,93.90
2023-01-28T17:30:41.498Z,97.70
2023-01-28T17:33:09.801Z,103.70
2023-01-28T17:35:37.869Z,106.40
2023-01-28T17:38:06.152Z,103.10
2023-01-28T17:40:35.726Z,101.10
2023-01-28T17:43:03.777Z,101.00
2023-01-28T17:45:33.066Z,100.20
2023-01-28T17:48:01.086Z,124.70
2023-01-28T17:50:28.997Z,126.30
2023-01-28T17:52:58.012Z,134.60
2023-01-28T17:55:26.245Z,129.70
2023-01-28T17:57:56.367Z,126.50
2023-01-28T18:00:26.253Z,120.70
2023-01-28T18:02:54.433Z,112.30
2023-01-28T18:05:22.414Z,109.90
2023-01-28T18:07:52.529Z,117.70
2023-01-28T18:10:27.121Z,109.00
2023-01-28T18:12:56.753Z,113.60
2023-01-28T18:15:25.367Z,116.30
2023-01-28T18:17:53.203Z,129.80
2023-01-28T18:20:21.389Z,127.10
2023-01-28T18:22:50.490Z,120.20
2023-01-28T18:25:20.386Z,126.50
2023-01-28T18:27:48.542Z,119.50
2023-01-28T18:30:16.971Z,130.80
2023-01-28T18:32:44.812Z,129.90
2023-01-28T18:35:12.722Z,137.60
2023-01-28T18:37:40.640Z,143.80
2023-01-28T18:40:09.760Z,145.50
2023-01-28T18:42:37.915Z,154.70
2023-01-28T18:45:11.257Z,177.40
2023-01-28T18:47:39.128Z,169.60
2023-01-28T18:50:08.035Z,183.00
2023-01-28T18:52:38.287Z,176.60
2023-01-28T18:55:07.148Z,185.00
2023-01-28T18:57:35.064Z,200.10
2023-01-28T19:00:03.630Z,201.30
2023-01-28T19:02:32.134Z,224.80
2023-01-28T19:05:00.230Z,181.90
2023-01-28T19:07:30.353Z,179.30
2023-01-28T19:09:58.881Z,190.20
2023-01-28T19:12:26.711Z,190.00
2023-01-28T19:14:54.817Z,179.90
2023-01-28T19:17:23.560Z,166.70
2023-01-28T19:19:51.576Z,155.70
2023-01-28T19:22:19.644Z,123.90
2023-01-28T19:24:47.659Z,126.30
2023-01-28T19:27:15.787Z,134.50
2023-01-28T19:29:44.555Z,142.30
2023-01-28T19:32:12.566Z,142.90
2023-01-28T19:34:40.584Z,151.10
2023-01-28T19:37:09.216Z,190.60
2023-01-28T19:39:37.321Z,209.90
2023-01-28T19:42:05.643Z,225.80
2023-01-28T23:55:43.981Z,92.00
2023-01-28T23:58:11.965Z,105.20
